Time;durP1;ratioP1;P1;durP2;ratioP2;P2;SDS_P1;SDS_P2;PMS_P1;PMS_P2;Temp;Humidity;BMP_temperature;BMP_pressure;BME280_temperature;BME280_humidity;BME280_pressure;Samples;Min_cycle;Max_cycle;Signal;HPM_P1;HPM_P2
2022/09/05 00:01:27;;;;;;;7.63;4.80;;;17.50;99.90;;;;;;5010391;28;20053;-74
2022/09/05 00:04:40;;;;;;;7.07;5.10;;;17.40;99.90;;;;;;5027083;28;20129;-74
2022/09/05 00:07:30;;;;;;;6.28;4.40;;;17.20;99.90;;;;;;4999512;28;20054;-74
2022/09/05 00:10:19;;;;;;;6.32;4.78;;;17.10;99.90;;;;;;5007650;28;20058;-74
2022/09/05 00:12:45;;;;;;;;;;;16.90;99.90;;;;;;5008724;28;20050;-74
2022/09/05 00:15:53;;;;;;;6.20;4.50;;;16.80;99.90;;;;;;5022728;28;19922;-74
2022/09/05 00:18:35;;;;;;;6.82;5.07;;;16.80;99.90;;;;;;5007916;28;20136;-74
2022/09/05 00:21:15;;;;;;;8.27;5.18;;;16.80;99.90;;;;;;5012074;28;20054;-74
2022/09/05 00:24:03;;;;;;;6.28;5.38;;;16.90;99.90;;;;;;5087576;28;20534;-74
2022/09/05 00:27:24;;;;;;;7.85;5.35;;;16.90;99.90;;;;;;5089124;28;20036;-74
2022/09/05 00:30:14;;;;;;;6.28;4.93;;;17.00;99.90;;;;;;5023730;28;20497;-74
2022/09/05 00:33:13;;;;;;;5.57;4.72;;;17.00;99.90;;;;;;5027381;28;20060;-74
2022/09/05 00:36:01;;;;;;;6.18;5.53;;;17.10;99.90;;;;;;5044081;28;20057;-74
2022/09/05 00:38:28;;;;;;;7.43;6.30;;;17.00;99.90;;;;;;5027369;28;20536;-74
2022/09/05 00:40:57;;;;;;;7.60;6.70;;;17.10;99.90;;;;;;5027545;28;20130;-74
2022/09/05 00:43:31;;;;;;;8.97;6.37;;;17.10;99.90;;;;;;5024646;28;20132;-74
2022/09/05 00:46:09;;;;;;;7.47;5.38;;;17.00;99.90;;;;;;5027132;28;20295;-74
2022/09/05 00:48:40;;;;;;;7.30;5.50;;;16.90;99.90;;;;;;5023590;28;20097;-74
2022/09/05 00:51:37;;;;;;;22.80;6.57;;;16.80;99.90;;;;;;5023983;28;20041;-74
2022/09/05 00:54:42;;;;;;;9.80;6.00;;;16.60;99.90;;;;;;5039068;28;20049;-74
2022/09/05 00:57:41;;;;;;;8.18;5.80;;;16.50;99.90;;;;;;5027467;28;20046;-74
2022/09/05 01:00:21;;;;;;;7.10;6.43;;;16.50;99.90;;;;;;5044344;28;20071;-74
2022/09/05 01:03:11;;;;;;;11.63;5.65;;;16.50;99.90;;;;;;5064038;28;20057;-74
2022/09/05 01:06:14;;;;;;;6.10;5.45;;;16.50;99.90;;;;;;5043632;28;20072;-74
2022/09/05 01:08:48;;;;;;;6.35;5.00;;;16.50;99.90;;;;;;5037398;28;20049;-74
2022/09/05 01:11:59;;;;;;;6.63;5.30;;;16.50;99.90;;;;;;5046100;28;20124;-74
2022/09/05 01:14:36;;;;;;;7.53;6.70;;;16.50;99.90;;;;;;5042522;28;20069;-74
2022/09/05 01:17:20;;;;;;;7.07;6.38;;;16.40;99.90;;;;;;5042103;28;20052;-74
2022/09/05 01:20:27;;;;;;;6.90;6.25;;;16.40;99.90;;;;;;5047998;28;20045;-74
2022/09/05 01:23:35;;;;;;;7.20;6.53;;;16.40;99.90;;;;;;5047527;28;20071;-74
2022/09/05 01:26:37;;;;;;;9.90;6.10;;;16.40;99.90;;;;;;5043853;28;20067;-73
2022/09/05 01:29:32;;;;;;;8.65;6.63;;;16.30;99.90;;;;;;5046942;28;20049;-74
2022/09/05 01:32:14;;;;;;;7.40;6.20;;;16.20;99.90;;;;;;5041609;28;20063;-74
2022/09/05 01:35:20;;;;;;;7.22;6.53;;;16.10;99.90;;;;;;5050206;28;20044;-74
2022/09/05 01:38:10;;;;;;;8.25;6.18;;;16.10;99.90;;;;;;5030215;28;20094;-74
2022/09/05 01:40:48;;;;;;;7.25;5.50;;;16.10;99.90;;;;;;5059747;28;20063;-74
2022/09/05 01:43:34;;;;;;;15.00;6.22;;;16.00;99.90;;;;;;5045765;28;20055;-74
2022/09/05 01:46:03;;;;;;;7.28;5.78;;;16.00;99.90;;;;;;5064527;28;20043;-74
2022/09/05 01:48:38;;;;;;;9.77;6.30;;;15.90;99.90;;;;;;5069827;28;20049;-74
2022/09/05 01:51:33;;;;;;;8.68;5.85;;;15.90;99.90;;;;;;5054172;28;20359;-74
2022/09/05 01:54:33;;;;;;;6.95;6.20;;;15.90;99.90;;;;;;5073235;28;20088;-74
2022/09/05 01:57:13;;;;;;;9.13;6.65;;;15.80;99.90;;;;;;5038469;28;20055;-73
2022/09/05 01:59:51;;;;;;;8.48;7.10;;;15.80;99.90;;;;;;5057767;28;20053;-74
2022/09/05 02:02:42;;;;;;;8.25;6.97;;;15.70;99.90;;;;;;5059603;28;20046;-74
2022/09/05 02:05:15;;;;;;;7.65;6.95;;;15.70;99.90;;;;;;5040960;28;20056;-74
2022/09/05 02:07:52;;;;;;;10.90;6.72;;;15.80;99.90;;;;;;5066215;28;20063;-74
2022/09/05 02:10:50;;;;;;;7.90;6.38;;;15.80;99.90;;;;;;5064358;28;20498;-74
2022/09/05 02:13:26;;;;;;;7.45;6.45;;;15.70;99.90;;;;;;5046191;28;20094;-73
2022/09/05 02:16:03;;;;;;;10.80;7.45;;;15.60;99.90;;;;;;5067528;28;20056;-74
2022/09/05 02:18:43;;;;;;;11.23;7.38;;;15.40;99.90;;;;;;5054167;28;20048;-74
2022/09/05 02:21:19;;;;;;;8.13;6.80;;;15.50;99.90;;;;;;5043045;28;20128;-74
2022/09/05 02:24:05;;;;;;;8.38;7.57;;;15.50;99.90;;;;;;5045790;28;20075;-74
2022/09/05 02:26:49;;;;;;;7.78;7.03;;;15.50;99.90;;;;;;5064278;28;20436;-74
2022/09/05 02:29:34;;;;;;;8.57;7.43;;;15.40;99.90;;;;;;5046682;28;20564;-74
2022/09/05 02:32:22;;;;;;;9.18;7.18;;;15.30;99.90;;;;;;5048164;28;20060;-74
2022/09/05 02:35:25;;;;;;;8.90;7.95;;;15.30;99.90;;;;;;5064605;28;20076;-74
2022/09/05 02:37:56;;;;;;;9.43;8.15;;;15.10;99.90;;;;;;4986382;28;20046;-74
2022/09/05 02:40:37;;;;;;;8.38;7.57;;;15.00;99.90;;;;;;4982653;28;20945;-74
2022/09/05 02:43:39;;;;;;;10.85;8.20;;;14.90;99.90;;;;;;4986969;28;20063;-74
2022/09/05 02:46:23;;;;;;;8.50;7.70;;;15.00;99.90;;;;;;4986518;28;20110;-74
2022/09/05 02:49:33;;;;;;;10.18;8.60;;;14.90;99.90;;;;;;5002491;28;20066;-74
2022/09/05 02:52:08;;;;;;;9.23;8.23;;;14.90;99.90;;;;;;4947487;29;20062;-74
2022/09/05 02:54:39;;;;;;;10.88;7.50;;;14.90;99.90;;;;;;4962063;29;20067;-74
2022/09/05 02:57:30;;;;;;;7.78;6.82;;;14.80;99.90;;;;;;4947471;29;20043;-74
2022/09/05 03:00:08;;;;;;;8.55;7.40;;;14.80;99.90;;;;;;4964049;29;20117;-74
2022/09/05 03:03:01;;;;;;;8.82;6.97;;;14.80;99.90;;;;;;4948759;28;20051;-74
2022/09/05 03:05:58;;;;;;;7.00;6.05;;;14.80;99.90;;;;;;4979926;28;20062;-74
2022/09/05 03:08:43;;;;;;;9.65;6.72;;;14.80;99.90;;;;;;4966717;28;20071;-74
2022/09/05 03:11:44;;;;;;;8.35;7.22;;;14.70;99.90;;;;;;4982600;28;20043;-73
2022/09/05 03:14:35;;;;;;;8.15;7.25;;;14.70;99.90;;;;;;4932856;29;20062;-74
2022/09/05 03:17:26;;;;;;;7.53;6.82;;;14.60;99.90;;;;;;4935046;29;20056;-74
2022/09/05 03:20:37;;;;;;;8.48;6.80;;;14.60;99.90;;;;;;4956334;28;20047;-74
2022/09/05 03:23:21;;;;;;;8.93;6.88;;;14.60;99.90;;;;;;4972467;28;20090;-74
2022/09/05 03:26:25;;;;;;;9.73;7.30;;;14.50;99.90;;;;;;4989631;28;20058;-74
2022/09/05 03:29:13;;;;;;;8.98;8.13;;;14.40;99.90;;;;;;5003132;28;20117;-74
2022/09/05 03:32:01;;;;;;;9.70;8.20;;;14.40;99.90;;;;;;5001471;28;20568;-74
2022/09/05 03:34:57;;;;;;;9.32;8.13;;;14.30;99.90;;;;;;4996098;28;20066;-74
2022/09/05 03:37:26;;;;;;;9.77;8.77;;;14.30;99.90;;;;;;5015023;28;20129;-74
2022/09/05 03:39:52;;;;;;;9.02;8.15;;;14.30;99.90;;;;;;4999787;28;20053;-74
2022/09/05 03:42:44;;;;;;;10.10;7.95;;;14.30;99.90;;;;;;5017615;28;20050;-74
2022/09/05 03:45:40;;;;;;;12.75;8.40;;;14.30;99.90;;;;;;5003238;28;20112;-74
2022/09/05 03:48:44;;;;;;;9.60;8.70;;;14.20;99.90;;;;;;5029434;28;20567;-74
2022/09/05 03:51:18;;;;;;;9.90;7.90;;;14.10;99.90;;;;;;5085838;28;20412;-74
2022/09/05 03:54:14;;;;;;;11.48;8.32;;;14.10;99.90;;;;;;5087707;28;20049;-74
2022/09/05 03:56:52;;;;;;;12.40;9.85;;;14.00;99.90;;;;;;5067923;28;20049;-74
2022/09/05 03:59:50;;;;;;;11.32;9.20;;;14.00;99.90;;;;;;5085972;28;20044;-74
2022/09/05 04:02:24;;;;;;;11.45;9.32;;;14.00;99.90;;;;;;5084764;28;20036;-74
2022/09/05 04:05:10;;;;;;;10.32;9.00;;;13.90;99.90;;;;;;5067714;28;20057;-74
2022/09/05 04:07:57;;;;;;;10.52;9.38;;;13.80;99.90;;;;;;5039412;28;20097;-74
2022/09/05 04:10:48;;;;;;;10.00;9.00;;;13.80;99.90;;;;;;5045231;28;20055;-74
2022/09/05 04:13:25;;;;;;;10.00;8.65;;;13.80;99.90;;;;;;5004477;28;20085;-74
2022/09/05 04:16:14;;;;;;;9.27;8.10;;;13.80;99.90;;;;;;4988506;28;20050;-74
2022/09/05 04:18:51;;;;;;;12.70;11.00;;;13.90;99.90;;;;;;4990154;28;20062;-74
2022/09/05 04:21:29;;;;;;;11.57;10.43;;;13.80;99.90;;;;;;5005051;28;20046;-74
2022/09/05 04:24:40;;;;;;;11.15;9.98;;;13.90;99.90;;;;;;5007485;28;20058;-74
2022/09/05 04:27:23;;;;;;;10.98;7.97;;;13.80;99.90;;;;;;5008895;28;20422;-74
2022/09/05 04:30:00;;;;;;;10.07;7.75;;;13.70;99.90;;;;;;5006562;28;20062;-74
2022/09/05 04:32:44;;;;;;;10.85;8.85;;;13.70;99.90;;;;;;4988895;28;20047;-74
2022/09/05 04:35:21;;;;;;;10.73;8.48;;;13.70;99.90;;;;;;4982202;28;20070;-74
2022/09/05 04:37:50;;;;;;;11.63;8.88;;;13.80;99.90;;;;;;4967621;28;20142;-74
2022/09/05 04:40:47;;;;;;;10.20;9.20;;;13.80;99.90;;;;;;5002380;28;20058;-75
2022/09/05 04:43:38;;;;;;;10.77;9.68;;;13.90;99.90;;;;;;4983746;28;20054;-75
2022/09/05 04:46:26;;;;;;;15.27;10.35;;;13.80;99.90;;;;;;5002606;28;20050;-73
2022/09/05 04:49:14;;;;;;;12.05;10.10;;;13.80;99.90;;;;;;5006523;28;20422;-74
2022/09/05 04:52:00;;;;;;;13.88;10.23;;;13.80;99.90;;;;;;5065072;28;20059;-75
2022/09/05 04:54:41;;;;;;;10.95;9.90;;;13.80;99.90;;;;;;5070133;28;20044;-74
2022/09/05 04:57:06;;;;;;;12.77;10.45;;;13.70;99.90;;;;;;5045007;28;20053;-72
2022/09/05 04:59:46;;;;;;;14.13;12.63;;;13.70;99.90;;;;;;5050649;28;20109;-74
2022/09/05 05:02:41;;;;;;;13.00;11.68;;;13.70;99.90;;;;;;5043864;28;20067;-75
2022/09/05 05:05:18;;;;;;;10.55;9.43;;;13.70;99.90;;;;;;5067899;28;20041;-75
2022/09/05 05:07:44;;;;;;;11.82;9.68;;;13.60;99.90;;;;;;5068284;28;20103;-76
2022/09/05 05:10:23;;;;;;;11.55;10.20;;;13.60;99.90;;;;;;5063265;28;20037;-77
2022/09/05 05:13:02;;;;;;;28.13;12.35;;;13.60;99.90;;;;;;5068238;28;20040;-76
2022/09/05 05:15:30;;;;;;;14.82;10.52;;;13.60;99.90;;;;;;5066933;28;20041;-75
2022/09/05 05:18:20;;;;;;;12.48;11.10;;;13.50;99.90;;;;;;5040931;28;20044;-74
2022/09/05 05:21:04;;;;;;;12.05;10.95;;;13.50;99.90;;;;;;5054310;28;20052;-75
2022/09/05 05:23:40;;;;;;;12.90;11.57;;;13.50;99.90;;;;;;5080093;28;20055;-76
2022/09/05 05:26:11;;;;;;;14.52;13.10;;;13.50;99.90;;;;;;5075530;28;20119;-76
2022/09/05 05:29:02;;;;;;;14.57;11.52;;;13.70;99.90;;;;;;5072727;28;20049;-72
2022/09/05 05:31:30;;;;;;;15.60;11.20;;;13.70;99.90;;;;;;5053617;28;20497;-72
2022/09/05 05:34:16;;;;;;;11.93;10.73;;;13.60;99.90;;;;;;5073904;28;20052;-72
2022/09/05 05:36:51;;;;;;;13.45;12.05;;;13.70;99.90;;;;;;5060837;28;20509;-72
2022/09/05 05:39:26;;;;;;;13.73;11.77;;;13.60;99.90;;;;;;5053449;28;20032;-72
2022/09/05 05:41:53;;;;;;;50.58;15.68;;;13.70;99.90;;;;;;5054692;28;20087;-72
2022/09/05 05:44:33;;;;;;;25.25;14.30;;;13.80;99.90;;;;;;5060289;28;20041;-72
2022/09/05 05:47:23;;;;;;;18.45;13.65;;;13.90;99.90;;;;;;5070012;28;20084;-72
2022/09/05 05:50:03;;;;;;;1542.15;152.18;;;14.00;99.90;;;;;;5005345;28;20052;-73
2022/09/05 05:52:59;;;;;;;1702.22;164.48;;;14.10;99.90;;;;;;5006609;28;20053;-73
2022/09/05 05:55:54;;;;;;;352.33;40.38;;;14.20;99.90;;;;;;5028890;28;20057;-74
2022/09/05 05:58:32;;;;;;;970.63;98.72;;;14.30;99.90;;;;;;5061056;28;20063;-73
2022/09/05 06:01:29;;;;;;;178.32;29.00;;;14.40;99.90;;;;;;5025377;28;20049;-73
2022/09/05 06:04:13;;;;;;;26.35;17.42;;;14.50;99.90;;;;;;5038215;28;20059;-70
2022/09/05 06:07:03;;;;;;;25.17;16.02;;;14.60;99.90;;;;;;5037902;28;20369;-71
2022/09/05 06:09:53;;;;;;;20.27;14.38;;;14.70;99.90;;;;;;5028795;28;20140;-72
2022/09/05 06:12:31;;;;;;;16.50;14.63;;;14.70;99.90;;;;;;5040232;28;20105;-71
2022/09/05 06:15:20;;;;;;;32.67;15.90;;;14.80;99.90;;;;;;5044570;28;20076;-71
2022/09/05 06:18:08;;;;;;;18.85;16.15;;;14.90;99.90;;;;;;5034912;28;20052;-71
2022/09/05 06:21:02;;;;;;;16.50;14.80;;;14.90;99.90;;;;;;5045381;28;20124;-71
2022/09/05 06:23:31;;;;;;;16.52;14.85;;;15.10;99.90;;;;;;5055925;28;20057;-70
2022/09/05 06:26:21;;;;;;;47.65;16.67;;;15.10;99.90;;;;;;5032580;28;20045;-71
2022/09/05 06:28:58;;;;;;;;;;;15.30;99.90;;;;;;5034890;28;20049;-72
2022/09/05 06:31:52;;;;;;;17.05;15.35;;;15.30;99.90;;;;;;5027582;28;20055;-72
2022/09/05 06:34:46;;;;;;;16.85;15.15;;;15.50;99.90;;;;;;5038154;28;20055;-72
2022/09/05 06:37:42;;;;;;;18.52;16.48;;;15.60;99.90;;;;;;5002935;28;20614;-71
2022/09/05 06:40:28;;;;;;;15.95;14.27;;;15.70;99.90;;;;;;5027440;28;20195;-72
2022/09/05 06:43:22;;;;;;;16.10;14.40;;;15.90;99.90;;;;;;5058084;28;20086;-71
2022/09/05 06:45:57;;;;;;;14.82;13.05;;;16.00;99.90;;;;;;5028724;28;20079;-71
2022/09/05 06:48:31;;;;;;;15.77;14.13;;;16.10;99.90;;;;;;5053293;28;20068;-72
2022/09/05 06:51:25;;;;;;;16.15;14.15;;;16.20;99.90;;;;;;5018006;28;20278;-71
2022/09/05 06:54:07;;;;;;;15.38;13.18;;;16.30;99.90;;;;;;5038306;28;20056;-72
2022/09/05 06:57:04;;;;;;;16.83;13.00;;;16.50;99.90;;;;;;5022239;28;20088;-72
2022/09/05 06:59:42;;;;;;;13.90;12.43;;;16.60;99.90;;;;;;5059649;28;20053;-72
2022/09/05 07:02:19;;;;;;;15.05;12.63;;;16.70;99.90;;;;;;5018245;28;20095;-72
2022/09/05 07:05:05;;;;;;;12.35;10.70;;;16.80;99.90;;;;;;5042987;28;20063;-73
2022/09/05 07:07:36;;;;;;;13.88;12.43;;;17.00;99.90;;;;;;5065953;28;20056;-72
2022/09/05 07:10:11;;;;;;;12.60;11.40;;;17.10;99.90;;;;;;5054366;28;20054;-72
2022/09/05 07:12:46;;;;;;;12.77;11.57;;;17.20;99.90;;;;;;5063792;28;20045;-72
2022/09/05 07:30:20;;;;;;;10.55;9.43;;;17.70;99.90;;;;;;4270998;26;20117;-70
2022/09/05 07:32:50;;;;;;;11.23;10.02;;;17.80;99.90;;;;;;4962658;28;20051;-70
2022/09/05 07:35:28;;;;;;;;;;;17.90;99.90;;;;;;4965644;28;20638;-70
2022/09/05 07:38:16;;;;;;;13.55;11.05;;;18.00;99.90;;;;;;4978337;28;19922;-73
2022/09/05 07:40:59;;;;;;;13.52;10.48;;;18.10;99.90;;;;;;4996552;28;20061;-73
2022/09/05 07:43:29;;;;;;;13.65;12.30;;;18.20;99.90;;;;;;4994057;28;20105;-73
2022/09/05 07:46:12;;;;;;;15.73;11.45;;;18.40;99.90;;;;;;5008019;28;20165;-73
2022/09/05 07:48:45;;;;;;;13.32;12.10;;;18.50;99.90;;;;;;4985442;28;20069;-73
2022/09/05 07:51:19;;;;;;;16.48;11.77;;;18.60;99.90;;;;;;4975279;28;20081;-74
2022/09/05 07:53:46;;;;;;;14.88;11.65;;;18.60;99.90;;;;;;4985549;28;20069;-73
2022/09/05 07:56:13;;;;;;;12.10;10.80;;;18.70;99.90;;;;;;4975150;28;20085;-73
2022/09/05 07:58:42;;;;;;;13.70;10.02;;;18.90;99.90;;;;;;4985354;28;20058;-73
2022/09/05 08:01:11;;;;;;;14.93;9.33;;;18.90;99.90;;;;;;4992076;28;20062;-73
2022/09/05 08:03:37;;;;;;;12.05;9.70;;;19.00;99.90;;;;;;4995487;28;20052;-74
2022/09/05 08:06:08;;;;;;;12.90;9.75;;;19.10;99.90;;;;;;4971614;28;20058;-73
2022/09/05 08:08:49;;;;;;;13.50;8.75;;;19.20;99.90;;;;;;4978776;28;20050;-77
2022/09/05 08:11:18;;;;;;;14.90;9.35;;;19.30;99.90;;;;;;4954605;28;20055;-73
2022/09/05 08:14:05;;;;;;;10.90;9.30;;;19.30;99.90;;;;;;4996454;28;20050;-73
2022/09/05 08:16:33;;;;;;;14.02;8.23;;;19.40;99.90;;;;;;4983901;28;20050;-73
2022/09/05 08:19:24;;;;;;;13.00;8.73;;;19.50;99.90;;;;;;4981838;28;20046;-73
2022/09/05 08:21:52;;;;;;;15.07;8.95;;;19.60;99.90;;;;;;4985849;28;20054;-73
2022/09/05 08:24:29;;;;;;;15.10;8.23;;;19.60;99.90;;;;;;4984777;28;20459;-74
2022/09/05 08:27:16;;;;;;;11.85;8.68;;;19.70;99.90;;;;;;4974548;28;20088;-73
2022/09/05 08:29:47;;;;;;;10.18;8.50;;;19.90;99.90;;;;;;5009151;28;20081;-74
2022/09/05 08:32:39;;;;;;;13.98;7.30;;;20.00;99.90;;;;;;4976036;28;20050;-73
2022/09/05 08:35:24;;;;;;;11.18;7.45;;;20.10;99.90;;;;;;4984318;28;20038;-73
2022/09/05 08:37:52;;;;;;;11.38;7.78;;;20.30;99.90;;;;;;4944460;28;20137;-74
2022/09/05 08:40:21;;;;;;;11.23;6.95;;;20.30;99.90;;;;;;4982429;28;20065;-73
2022/09/05 08:42:55;;;;;;;11.43;7.43;;;20.40;99.90;;;;;;4981681;28;20069;-73
2022/09/05 08:45:26;;;;;;;13.18;8.15;;;20.50;99.90;;;;;;4955068;28;20663;-73
2022/09/05 08:48:09;;;;;;;13.32;7.80;;;20.60;99.90;;;;;;4979909;28;20046;-73
2022/09/05 08:50:53;;;;;;;10.55;7.88;;;20.80;99.90;;;;;;4967105;28;20131;-73
2022/09/05 08:53:37;;;;;;;11.90;7.25;;;20.90;99.90;;;;;;4981798;28;20053;-74
2022/09/05 08:56:14;;;;;;;12.60;7.28;;;21.00;99.90;;;;;;4962393;28;20053;-73
2022/09/05 08:59:10;;;;;;;9.25;6.75;;;21.00;99.90;;;;;;4996625;28;20043;-73
2022/09/05 09:02:14;;;;;;;15.48;7.85;;;21.10;99.90;;;;;;4967161;28;20184;-73
2022/09/05 09:04:50;;;;;;;10.48;6.63;;;21.10;99.90;;;;;;4954846;28;20053;-73
2022/09/05 09:07:37;;;;;;;10.25;8.05;;;21.20;99.90;;;;;;4947824;28;20050;-74
2022/09/05 09:10:23;;;;;;;13.88;7.57;;;21.20;99.90;;;;;;4981804;28;20346;-73
2022/09/05 09:13:21;;;;;;;15.02;7.10;;;21.40;99.90;;;;;;4951313;28;20050;-73
2022/09/05 09:16:32;;;;;;;9.68;7.82;;;21.50;99.90;;;;;;4974621;28;20042;-74
2022/09/05 09:19:12;;;;;;;10.70;7.57;;;21.60;99.90;;;;;;4953101;28;20058;-73
2022/09/05 09:22:04;;;;;;;11.65;7.65;;;21.70;99.90;;;;;;4991652;28;20050;-74
2022/09/05 09:24:46;;;;;;;9.38;6.53;;;21.70;99.90;;;;;;4972414;28;20576;-74
2022/09/05 09:27:29;;;;;;;13.65;6.88;;;21.80;99.90;;;;;;4971469;28;20108;-73
2022/09/05 09:30:03;;;;;;;11.77;7.53;;;21.90;99.90;;;;;;5002354;28;20062;-74
2022/09/05 09:32:38;;;;;;;11.23;7.35;;;22.00;99.90;;;;;;4977455;28;20054;-74
2022/09/05 09:35:30;;;;;;;9.27;7.50;;;22.20;99.90;;;;;;4990728;28;20050;-74
2022/09/05 09:38:13;;;;;;;9.02;7.05;;;22.30;99.90;;;;;;4975181;28;20046;-73
2022/09/05 09:41:21;;;;;;;15.32;7.20;;;22.40;99.90;;;;;;4983066;28;20522;-73
2022/09/05 09:44:28;;;;;;;9.45;5.63;;;22.50;99.90;;;;;;4996712;28;20046;-72
2022/09/05 09:46:54;;;;;;;7.90;5.38;;;22.60;99.90;;;;;;4957837;28;20058;-73
2022/09/05 09:49:38;;;;;;;9.98;5.65;;;22.60;99.90;;;;;;4997169;28;20061;-73
2022/09/05 09:52:41;;;;;;;10.82;5.32;;;22.70;99.90;;;;;;4993361;28;20045;-73
2022/09/05 09:55:25;;;;;;;7.25;5.07;;;22.80;99.90;;;;;;4991276;28;20129;-73
2022/09/05 09:58:08;;;;;;;7.22;5.15;;;22.80;99.90;;;;;;4992965;28;20105;-73
2022/09/05 10:01:05;;;;;;;4.78;4.32;;;23.00;99.90;;;;;;4964557;28;20137;-73
2022/09/05 10:04:08;;;;;;;6.10;4.82;;;23.10;99.90;;;;;;5002265;28;20081;-73
2022/09/05 10:07:01;;;;;;;5.65;4.57;;;23.10;99.90;;;;;;4973520;28;20236;-73
2022/09/05 10:09:55;;;;;;;5.78;3.95;;;23.30;99.90;;;;;;4982209;28;20097;-73
2022/09/05 10:12:51;;;;;;;5.63;4.13;;;23.50;99.90;;;;;;4987751;28;20078;-73
2022/09/05 10:15:33;;;;;;;7.47;4.13;;;23.70;99.90;;;;;;4981804;28;20864;-73
2022/09/05 10:18:33;;;;;;;9.55;4.65;;;23.80;99.90;;;;;;5002941;28;20054;-72
2022/09/05 10:21:23;;;;;;;6.18;4.70;;;23.90;99.90;;;;;;4984068;28;20061;-71
2022/09/05 10:23:55;;;;;;;9.38;4.88;;;24.00;99.90;;;;;;4981361;28;20054;-72
2022/09/05 10:26:51;;;;;;;6.53;4.18;;;24.10;99.90;;;;;;4997410;28;20050;-72
2022/09/05 10:29:32;;;;;;;4.72;4.22;;;24.10;99.90;;;;;;5004481;28;20134;-73
2022/09/05 10:32:33;;;;;;;5.68;4.07;;;24.30;99.90;;;;;;4980586;28;20049;-72
2022/09/05 10:35:09;;;;;;;7.43;4.53;;;24.50;99.90;;;;;;4996150;28;20061;-72
2022/09/05 10:37:42;;;;;;;5.40;4.85;;;24.60;99.90;;;;;;4996624;28;20050;-73
2022/09/05 10:40:12;;;;;;;6.28;4.28;;;24.60;99.90;;;;;;5000475;28;20165;-72
2022/09/05 10:42:50;;;;;;;7.18;4.10;;;24.80;99.90;;;;;;4972269;28;20053;-72
2022/09/05 10:45:31;;;;;;;10.88;4.55;;;24.80;99.70;;;;;;5017291;28;20928;-72
2022/09/05 10:48:03;;;;;;;4.35;3.53;;;24.80;99.70;;;;;;5006010;28;20308;-72
2022/09/05 10:50:53;;;;;;;4.93;3.80;;;24.80;99.70;;;;;;4981558;28;20054;-71
2022/09/05 10:53:28;;;;;;;6.47;4.25;;;24.90;99.90;;;;;;4915524;28;20552;-71
2022/09/05 10:56:13;;;;;;;6.45;3.63;;;24.90;99.80;;;;;;4974670;28;20061;-70
2022/09/05 10:58:58;;;;;;;4.60;3.88;;;24.90;99.60;;;;;;4989524;28;20078;-72
2022/09/05 11:01:25;;;;;;;8.05;4.25;;;25.00;99.00;;;;;;5008335;28;20284;-72
2022/09/05 11:04:29;;;;;;;5.18;3.92;;;25.00;99.30;;;;;;5002234;28;20054;-72
2022/09/05 11:07:07;;;;;;;11.85;4.55;;;25.20;99.20;;;;;;4921318;28;20723;-71
2022/09/05 11:09:35;;;;;;;27.00;5.38;;;25.20;98.40;;;;;;4942097;29;20116;-71
2022/09/05 11:12:27;;;;;;;6.05;3.67;;;25.30;98.40;;;;;;4935468;29;20059;-72
2022/09/05 11:15:00;;;;;;;5.05;3.83;;;25.30;98.40;;;;;;4922352;29;20095;-72
2022/09/05 11:17:40;;;;;;;7.72;3.70;;;25.40;98.60;;;;;;4924692;29;20081;-71
2022/09/05 11:20:40;;;;;;;7.55;4.13;;;25.50;97.90;;;;;;4937124;29;20039;-71
2022/09/05 11:23:33;;;;;;;4.28;3.88;;;25.60;97.20;;;;;;4942723;28;20067;-71
2022/09/05 11:26:24;;;;;;;5.57;3.72;;;25.70;97.00;;;;;;4943973;29;20115;-73
2022/09/05 11:28:55;;;;;;;5.72;3.90;;;25.70;97.20;;;;;;4930344;29;20052;-71
2022/09/05 11:31:26;;;;;;;5.93;3.58;;;25.80;97.20;;;;;;4929790;28;20598;-71
2022/09/05 11:34:01;;;;;;;4.88;3.70;;;25.90;97.10;;;;;;4950807;29;20043;-71
2022/09/05 11:36:42;;;;;;;12.23;4.18;;;25.90;96.90;;;;;;4950006;28;20042;-71
2022/09/05 11:39:28;;;;;;;6.05;4.00;;;26.00;96.40;;;;;;4934263;28;20063;-71
2022/09/05 11:42:31;;;;;;;5.93;3.60;;;26.00;96.20;;;;;;4963440;28;20054;-71
2022/09/05 11:45:15;;;;;;;4.35;3.00;;;26.20;96.00;;;;;;4998353;28;20050;-72
2022/09/05 11:47:46;;;;;;;5.72;3.60;;;26.30;95.80;;;;;;4977965;28;20124;-71
2022/09/05 11:50:41;;;;;;;5.72;3.60;;;26.40;95.40;;;;;;4980349;28;20073;-71
2022/09/05 11:53:28;;;;;;;5.63;3.65;;;26.40;95.00;;;;;;5003677;28;20121;-71
2022/09/05 11:56:27;;;;;;;4.22;3.47;;;26.50;94.80;;;;;;5011139;28;20046;-71
2022/09/05 11:59:29;;;;;;;6.35;3.63;;;26.60;94.70;;;;;;4961192;28;20047;-71
2022/09/05 12:02:16;;;;;;;5.10;3.53;;;26.70;94.30;;;;;;4979329;28;20045;-72
2022/09/05 12:05:10;;;;;;;9.80;3.40;;;26.90;94.60;;;;;;4988461;28;20046;-73
2022/09/05 12:07:39;;;;;;;9.48;3.25;;;27.00;94.50;;;;;;4988058;28;20052;-71
2022/09/05 12:10:08;;;;;;;3.40;3.10;;;27.20;93.80;;;;;;4984557;28;20585;-72
2022/09/05 12:12:42;;;;;;;4.22;3.13;;;27.50;93.50;;;;;;4996872;28;20077;-72
2022/09/05 12:15:24;;;;;;;4.75;3.13;;;27.70;93.30;;;;;;4979649;28;20070;-72
2022/09/05 12:18:24;;;;;;;5.57;3.10;;;27.80;92.90;;;;;;4992867;28;20144;-71
2022/09/05 12:21:22;;;;;;;4.47;3.15;;;27.90;92.80;;;;;;5004761;28;20058;-72
2022/09/05 12:24:14;;;;;;;3.85;2.88;;;28.00;92.80;;;;;;4984319;28;20062;-71
2022/09/05 12:26:53;;;;;;;5.53;3.25;;;28.10;92.20;;;;;;4991568;28;20050;-71
2022/09/05 12:29:23;;;;;;;4.65;3.17;;;28.20;91.70;;;;;;4991986;28;20416;-72
2022/09/05 12:31:57;;;;;;;4.10;3.17;;;28.10;91.70;;;;;;5003401;28;20075;-72
2022/09/05 12:34:37;;;;;;;5.25;2.55;;;28.20;91.60;;;;;;4971127;28;20058;-72
2022/09/05 12:37:07;;;;;;;3.67;2.67;;;28.10;91.30;;;;;;4992975;28;20624;-72
2022/09/05 12:39:42;;;;;;;4.50;2.67;;;28.20;91.40;;;;;;4990822;28;20299;-72
2022/09/05 12:42:20;;;;;;;6.43;2.90;;;28.20;91.40;;;;;;4995305;28;20050;-72
2022/09/05 12:45:19;;;;;;;4.15;3.17;;;28.30;91.30;;;;;;5008984;28;20070;-73
2022/09/05 12:48:01;;;;;;;5.03;2.92;;;28.50;91.00;;;;;;5001536;28;20056;-72
2022/09/05 12:50:39;;;;;;;4.35;3.00;;;28.60;91.00;;;;;;4973607;28;20525;-72
2022/09/05 12:53:13;;;;;;;4.07;3.03;;;28.70;90.90;;;;;;4973450;28;20115;-72
2022/09/05 12:55:44;;;;;;;3.10;2.80;;;28.70;90.20;;;;;;4998569;28;20046;-71
2022/09/05 12:58:18;;;;;;;8.05;2.95;;;28.80;90.30;;;;;;4966399;28;20050;-72
2022/09/05 13:00:46;;;;;;;4.68;3.20;;;28.90;90.40;;;;;;4994385;28;20050;-72
2022/09/05 13:03:26;;;;;;;3.75;3.40;;;29.00;90.10;;;;;;4983083;28;20172;-71
2022/09/05 13:06:07;;;;;;;4.72;2.72;;;29.00;89.20;;;;;;4992786;28;20050;-71
2022/09/05 13:08:59;;;;;;;4.68;2.78;;;29.00;88.90;;;;;;5004103;28;20542;-72
2022/09/05 13:11:28;;;;;;;4.88;3.28;;;29.20;88.70;;;;;;4968713;28;20046;-71
2022/09/05 13:14:05;;;;;;;4.78;2.70;;;29.30;88.70;;;;;;5010735;28;20082;-71
2022/09/05 13:16:31;;;;;;;3.50;2.85;;;29.50;88.10;;;;;;4981091;28;20045;-73
2022/09/05 13:19:06;;;;;;;3.78;3.00;;;29.50;86.90;;;;;;4982269;28;20058;-71
2022/09/05 13:21:37;;;;;;;3.00;2.70;;;29.60;86.30;;;;;;4987190;28;20042;-72
2022/09/05 13:24:13;;;;;;;4.13;3.00;;;29.60;86.80;;;;;;5001853;28;20325;-72
2022/09/05 13:27:07;;;;;;;3.22;2.92;;;29.60;88.00;;;;;;4973514;28;20053;-72
2022/09/05 13:29:51;;;;;;;4.35;2.67;;;29.80;87.80;;;;;;4985758;28;20054;-72
2022/09/05 13:32:29;;;;;;;4.68;2.83;;;30.00;86.90;;;;;;4973299;28;20144;-72
2022/09/05 13:35:13;;;;;;;2.58;2.38;;;30.10;87.70;;;;;;4992708;28;20557;-72
2022/09/05 13:37:43;;;;;;;5.03;3.15;;;30.10;87.10;;;;;;4988175;28;20061;-72
2022/09/05 13:40:18;;;;;;;8.10;3.50;;;30.30;86.60;;;;;;4976775;28;20046;-72
2022/09/05 13:43:09;;;;;;;3.65;2.75;;;30.50;85.30;;;;;;4978298;28;20060;-72
2022/09/05 13:46:02;;;;;;;5.72;2.90;;;30.70;84.60;;;;;;4986274;28;20109;-72
2022/09/05 13:48:46;;;;;;;4.35;2.50;;;30.70;84.40;;;;;;4973543;28;20057;-72
2022/09/05 13:51:42;;;;;;;4.53;3.22;;;30.90;84.20;;;;;;4991792;28;20042;-72
2022/09/05 13:54:23;;;;;;;7.15;3.40;;;31.40;84.60;;;;;;4964427;28;20047;-72
2022/09/05 13:57:18;;;;;;;3.80;2.70;;;32.20;83.20;;;;;;4991470;28;20050;-72
2022/09/05 14:00:08;;;;;;;2.75;2.45;;;33.20;82.90;;;;;;4975787;28;20057;-73
2022/09/05 14:03:01;;;;;;;2.70;2.22;;;34.00;77.80;;;;;;4985125;28;20053;-72
2022/09/05 14:05:48;;;;;;;2.33;2.13;;;34.90;76.60;;;;;;4998403;28;20058;-72
2022/09/05 14:08:33;;;;;;;3.58;2.30;;;35.70;74.80;;;;;;4994348;28;20093;-72
2022/09/05 14:11:20;;;;;;;3.55;2.30;;;36.20;73.50;;;;;;4987669;28;20054;-72
2022/09/05 14:14:10;;;;;;;2.55;2.10;;;36.40;74.00;;;;;;4974373;28;20130;-73
2022/09/05 14:16:45;;;;;;;3.33;2.75;;;36.90;73.00;;;;;;4964016;28;20062;-71
2022/09/05 14:22:07;;;;;;;3.33;2.13;;;37.70;70.80;;;;;;4988663;28;20133;-72
2022/09/05 14:24:45;;;;;;;3.25;2.22;;;38.30;70.30;;;;;;4974464;28;20078;-73